Cato, Kansas
Current Conditions -  °F | °C
As of 2:55 PM on Tuesday 27 Jan 2015 (Local Time) from KPTS Reporting Station
Clear Clear  
Wind Chill: 61°   Ceiling: Unl
Heat Index: 61°   Visibility: 10mi
Dew Point: 35°   Wind: 5mph
Humidity: 38%   Direction: 130°SE
Pressure: 30.1"   Gusts: NA
Location:  37.6277°N, 94.7013°W
Report Text: KPTS 272055Z AUTO 13004KT 10SM CLR 16/02 A3010 RMK AO2 T01610016
Loading
Personal Weather Stations






























Interactive Weather Map New forecast layout! Learn more

10-Day Weather Forecast

Advertisements
Track Severe Weather on mobile